sensor_id;sensor_type;location;lat;lon;timestamp;temperature;humidity
13251;DHT22;6692;50.710;7.180;2023-07-31T00:00:20;19.50;99.90
13251;DHT22;6692;50.710;7.180;2023-07-31T00:02:22;19.50;99.90
13251;DHT22;6692;50.710;7.180;2023-07-31T00:04:22;19.50;99.90
13251;DHT22;6692;50.710;7.180;2023-07-31T00:06:23;19.50;99.90
13251;DHT22;6692;50.710;7.180;2023-07-31T00:08:24;19.50;99.90
13251;DHT22;6692;50.710;7.180;2023-07-31T00:10:24;19.50;99.90
13251;DHT22;6692;50.710;7.180;2023-07-31T00:12:25;19.50;99.90
13251;DHT22;6692;50.710;7.180;2023-07-31T00:14:27;19.50;99.90
13251;DHT22;6692;50.710;7.180;2023-07-31T00:16:28;19.50;99.90
13251;DHT22;6692;50.710;7.180;2023-07-31T00:18:29;19.50;99.90
13251;DHT22;6692;50.710;7.180;2023-07-31T00:20:29;19.50;99.90
13251;DHT22;6692;50.710;7.180;2023-07-31T00:22:30;19.50;99.90
13251;DHT22;6692;50.710;7.180;2023-07-31T00:24:32;19.50;99.90
13251;DHT22;6692;50.710;7.180;2023-07-31T00:26:32;19.50;99.90
13251;DHT22;6692;50.710;7.180;2023-07-31T00:28:33;19.50;99.90
13251;DHT22;6692;50.710;7.180;2023-07-31T00:30:34;19.50;99.90
13251;DHT22;6692;50.710;7.180;2023-07-31T00:32:34;19.50;99.90
13251;DHT22;6692;50.710;7.180;2023-07-31T00:34:36;19.50;99.90
13251;DHT22;6692;50.710;7.180;2023-07-31T00:36:37;19.50;99.90
13251;DHT22;6692;50.710;7.180;2023-07-31T00:38:37;19.50;99.90
13251;DHT22;6692;50.710;7.180;2023-07-31T00:40:38;19.50;99.90
13251;DHT22;6692;50.710;7.180;2023-07-31T00:42:39;19.50;99.90
13251;DHT22;6692;50.710;7.180;2023-07-31T00:44:40;19.50;99.90
13251;DHT22;6692;50.710;7.180;2023-07-31T00:46:41;19.50;99.90
13251;DHT22;6692;50.710;7.180;2023-07-31T00:48:41;19.50;99.90
13251;DHT22;6692;50.710;7.180;2023-07-31T00:50:43;19.50;99.90
13251;DHT22;6692;50.710;7.180;2023-07-31T00:52:44;19.50;99.90
13251;DHT22;6692;50.710;7.180;2023-07-31T00:54:44;19.50;99.90
13251;DHT22;6692;50.710;7.180;2023-07-31T00:56:45;19.50;99.90
13251;DHT22;6692;50.710;7.180;2023-07-31T00:58:46;19.50;99.90
13251;DHT22;6692;50.710;7.180;2023-07-31T01:00:46;19.50;99.90
13251;DHT22;6692;50.710;7.180;2023-07-31T01:02:49;19.50;99.90
13251;DHT22;6692;50.710;7.180;2023-07-31T01:04:49;19.50;99.90
13251;DHT22;6692;50.710;7.180;2023-07-31T01:07:01;19.50;99.90
13251;DHT22;6692;50.710;7.180;2023-07-31T01:09:02;19.50;99.90
13251;DHT22;6692;50.710;7.180;2023-07-31T01:11:00;19.50;99.90
13251;DHT22;6692;50.710;7.180;2023-07-31T01:13:00;19.50;99.90
13251;DHT22;6692;50.710;7.180;2023-07-31T01:15:04;19.50;99.90
13251;DHT22;6692;50.710;7.180;2023-07-31T01:17:04;19.50;99.90
13251;DHT22;6692;50.710;7.180;2023-07-31T01:19:06;19.50;99.90
13251;DHT22;6692;50.710;7.180;2023-07-31T01:23:29;19.50;99.90
13251;DHT22;6692;50.710;7.180;2023-07-31T01:25:49;19.50;99.90
13251;DHT22;6692;50.710;7.180;2023-07-31T01:27:51;19.40;99.90
13251;DHT22;6692;50.710;7.180;2023-07-31T01:29:56;19.40;99.90
13251;DHT22;6692;50.710;7.180;2023-07-31T01:31:55;19.40;99.90
13251;DHT22;6692;50.710;7.180;2023-07-31T01:33:56;19.40;99.90
13251;DHT22;6692;50.710;7.180;2023-07-31T01:35:56;19.40;99.90
13251;DHT22;6692;50.710;7.180;2023-07-31T01:37:57;19.30;99.90
13251;DHT22;6692;50.710;7.180;2023-07-31T01:39:58;19.20;99.90
13251;DHT22;6692;50.710;7.180;2023-07-31T01:41:59;19.00;99.90
13251;DHT22;6692;50.710;7.180;2023-07-31T01:44:00;19.00;99.90
13251;DHT22;6692;50.710;7.180;2023-07-31T01:46:00;19.00;99.90
13251;DHT22;6692;50.710;7.180;2023-07-31T01:48:01;18.90;99.90
13251;DHT22;6692;50.710;7.180;2023-07-31T01:50:03;18.90;99.90
13251;DHT22;6692;50.710;7.180;2023-07-31T01:52:06;18.90;99.90
13251;DHT22;6692;50.710;7.180;2023-07-31T01:54:06;18.80;99.90
13251;DHT22;6692;50.710;7.180;2023-07-31T01:56:07;18.90;99.90
13251;DHT22;6692;50.710;7.180;2023-07-31T01:58:08;18.90;99.90
13251;DHT22;6692;50.710;7.180;2023-07-31T02:00:09;18.90;99.90
13251;DHT22;6692;50.710;7.180;2023-07-31T02:02:10;18.90;99.90
13251;DHT22;6692;50.710;7.180;2023-07-31T02:04:11;18.90;99.90
13251;DHT22;6692;50.710;7.180;2023-07-31T02:06:12;18.90;99.90
13251;DHT22;6692;50.710;7.180;2023-07-31T02:08:13;19.00;99.90
13251;DHT22;6692;50.710;7.180;2023-07-31T02:10:14;19.00;99.90
13251;DHT22;6692;50.710;7.180;2023-07-31T02:12:14;19.00;99.90
13251;DHT22;6692;50.710;7.180;2023-07-31T02:14:15;19.00;99.90
13251;DHT22;6692;50.710;7.180;2023-07-31T02:16:16;19.10;99.90
13251;DHT22;6692;50.710;7.180;2023-07-31T02:18:17;19.00;99.90
13251;DHT22;6692;50.710;7.180;2023-07-31T02:20:18;19.10;99.90
13251;DHT22;6692;50.710;7.180;2023-07-31T02:22:19;19.10;99.90
13251;DHT22;6692;50.710;7.180;2023-07-31T02:24:20;19.10;99.90
13251;DHT22;6692;50.710;7.180;2023-07-31T02:26:21;19.10;99.90
13251;DHT22;6692;50.710;7.180;2023-07-31T02:28:22;19.10;99.90
13251;DHT22;6692;50.710;7.180;2023-07-31T02:30:23;19.10;99.90
13251;DHT22;6692;50.710;7.180;2023-07-31T02:32:23;19.10;99.90
13251;DHT22;6692;50.710;7.180;2023-07-31T02:34:24;19.10;99.90
13251;DHT22;6692;50.710;7.180;2023-07-31T02:36:25;19.10;99.90
13251;DHT22;6692;50.710;7.180;2023-07-31T02:38:26;19.10;99.90
13251;DHT22;6692;50.710;7.180;2023-07-31T02:40:27;19.10;99.90
13251;DHT22;6692;50.710;7.180;2023-07-31T02:42:28;19.20;99.90
13251;DHT22;6692;50.710;7.180;2023-07-31T02:44:28;19.20;99.90
13251;DHT22;6692;50.710;7.180;2023-07-31T02:46:29;19.20;99.90
13251;DHT22;6692;50.710;7.180;2023-07-31T02:48:30;19.20;99.90
13251;DHT22;6692;50.710;7.180;2023-07-31T02:50:31;19.20;99.90
13251;DHT22;6692;50.710;7.180;2023-07-31T02:52:31;19.20;99.90
13251;DHT22;6692;50.710;7.180;2023-07-31T02:54:32;19.20;99.90
13251;DHT22;6692;50.710;7.180;2023-07-31T02:56:33;19.20;99.90
13251;DHT22;6692;50.710;7.180;2023-07-31T02:58:33;19.20;99.90
13251;DHT22;6692;50.710;7.180;2023-07-31T03:00:34;19.20;99.90
13251;DHT22;6692;50.710;7.180;2023-07-31T03:02:35;19.20;99.90
13251;DHT22;6692;50.710;7.180;2023-07-31T03:04:36;19.20;99.90
13251;DHT22;6692;50.710;7.180;2023-07-31T03:06:36;19.20;99.90
13251;DHT22;6692;50.710;7.180;2023-07-31T03:08:38;19.20;99.90
13251;DHT22;6692;50.710;7.180;2023-07-31T03:10:38;19.20;99.90
13251;DHT22;6692;50.710;7.180;2023-07-31T03:12:40;19.20;99.90
13251;DHT22;6692;50.710;7.180;2023-07-31T03:14:41;19.20;99.90
13251;DHT22;6692;50.710;7.180;2023-07-31T03:16:41;19.20;99.90
13251;DHT22;6692;50.710;7.180;2023-07-31T03:18:42;19.20;99.90
13251;DHT22;6692;50.710;7.180;2023-07-31T03:20:43;19.30;99.90
13251;DHT22;6692;50.710;7.180;2023-07-31T03:22:43;19.30;99.90
13251;DHT22;6692;50.710;7.180;2023-07-31T03:24:44;19.30;99.90
13251;DHT22;6692;50.710;7.180;2023-07-31T03:26:45;19.30;99.90
13251;DHT22;6692;50.710;7.180;2023-07-31T03:28:46;19.30;99.90
13251;DHT22;6692;50.710;7.180;2023-07-31T03:30:46;19.30;99.90
13251;DHT22;6692;50.710;7.180;2023-07-31T03:32:47;19.30;99.90
13251;DHT22;6692;50.710;7.180;2023-07-31T03:34:49;19.30;99.90
13251;DHT22;6692;50.710;7.180;2023-07-31T03:36:48;19.30;99.90
13251;DHT22;6692;50.710;7.180;2023-07-31T03:38:50;19.30;99.90
13251;DHT22;6692;50.710;7.180;2023-07-31T03:40:50;19.40;99.90
13251;DHT22;6692;50.710;7.180;2023-07-31T03:42:51;19.30;99.90
13251;DHT22;6692;50.710;7.180;2023-07-31T03:44:53;19.30;99.90
13251;DHT22;6692;50.710;7.180;2023-07-31T03:46:54;19.30;99.90
13251;DHT22;6692;50.710;7.180;2023-07-31T03:48:54;19.30;99.90
13251;DHT22;6692;50.710;7.180;2023-07-31T03:50:56;19.30;99.90
13251;DHT22;6692;50.710;7.180;2023-07-31T03:52:56;19.30;99.90
13251;DHT22;6692;50.710;7.180;2023-07-31T03:54:57;19.30;99.90
13251;DHT22;6692;50.710;7.180;2023-07-31T03:56:58;19.30;99.90
13251;DHT22;6692;50.710;7.180;2023-07-31T03:58:59;19.30;99.90
13251;DHT22;6692;50.710;7.180;2023-07-31T04:00:59;19.30;99.90
13251;DHT22;6692;50.710;7.180;2023-07-31T04:03:00;19.30;99.90
13251;DHT22;6692;50.710;7.180;2023-07-31T04:05:01;19.40;99.90
13251;DHT22;6692;50.710;7.180;2023-07-31T04:07:02;19.40;99.90
13251;DHT22;6692;50.710;7.180;2023-07-31T04:09:03;19.40;99.90
13251;DHT22;6692;50.710;7.180;2023-07-31T04:11:03;19.40;99.90
13251;DHT22;6692;50.710;7.180;2023-07-31T04:13:04;19.40;99.90
13251;DHT22;6692;50.710;7.180;2023-07-31T04:15:06;19.30;99.90
13251;DHT22;6692;50.710;7.180;2023-07-31T04:17:07;19.40;99.90
13251;DHT22;6692;50.710;7.180;2023-07-31T04:19:08;19.40;99.90
13251;DHT22;6692;50.710;7.180;2023-07-31T04:21:08;19.40;99.90
13251;DHT22;6692;50.710;7.180;2023-07-31T04:23:09;19.40;99.90
13251;DHT22;6692;50.710;7.180;2023-07-31T04:25:10;19.40;99.90
13251;DHT22;6692;50.710;7.180;2023-07-31T04:27:10;19.40;99.90
13251;DHT22;6692;50.710;7.180;2023-07-31T04:29:11;19.40;99.90
13251;DHT22;6692;50.710;7.180;2023-07-31T04:31:12;19.40;99.90
13251;DHT22;6692;50.710;7.180;2023-07-31T04:33:13;19.40;99.90
13251;DHT22;6692;50.710;7.180;2023-07-31T04:35:14;19.40;99.90
13251;DHT22;6692;50.710;7.180;2023-07-31T04:37:14;19.40;99.90
13251;DHT22;6692;50.710;7.180;2023-07-31T04:39:15;19.50;99.90
13251;DHT22;6692;50.710;7.180;2023-07-31T04:41:16;19.50;99.90
13251;DHT22;6692;50.710;7.180;2023-07-31T04:43:16;19.50;99.90
13251;DHT22;6692;50.710;7.180;2023-07-31T04:45:18;19.50;99.90
13251;DHT22;6692;50.710;7.180;2023-07-31T04:47:19;19.50;99.90
13251;DHT22;6692;50.710;7.180;2023-07-31T04:49:20;19.50;99.90
13251;DHT22;6692;50.710;7.180;2023-07-31T04:51:22;19.60;99.90
13251;DHT22;6692;50.710;7.180;2023-07-31T04:53:22;19.50;99.90
13251;DHT22;6692;50.710;7.180;2023-07-31T04:55:23;19.60;99.90
13251;DHT22;6692;50.710;7.180;2023-07-31T04:57:24;19.60;99.90
13251;DHT22;6692;50.710;7.180;2023-07-31T04:59:25;19.60;99.90
13251;DHT22;6692;50.710;7.180;2023-07-31T05:01:25;19.70;99.90
13251;DHT22;6692;50.710;7.180;2023-07-31T05:03:26;19.60;99.90
13251;DHT22;6692;50.710;7.180;2023-07-31T05:05:27;19.70;99.90
13251;DHT22;6692;50.710;7.180;2023-07-31T05:07:27;19.70;99.90
13251;DHT22;6692;50.710;7.180;2023-07-31T05:09:28;19.70;99.90
13251;DHT22;6692;50.710;7.180;2023-07-31T05:11:29;19.80;99.90
13251;DHT22;6692;50.710;7.180;2023-07-31T05:13:29;19.90;99.90
13251;DHT22;6692;50.710;7.180;2023-07-31T05:15:30;19.90;99.90
13251;DHT22;6692;50.710;7.180;2023-07-31T05:17:31;19.90;99.90
13251;DHT22;6692;50.710;7.180;2023-07-31T05:19:31;19.90;99.90
13251;DHT22;6692;50.710;7.180;2023-07-31T05:21:32;19.90;99.90
13251;DHT22;6692;50.710;7.180;2023-07-31T05:23:33;19.90;99.90
13251;DHT22;6692;50.710;7.180;2023-07-31T05:25:34;20.00;99.90
13251;DHT22;6692;50.710;7.180;2023-07-31T05:27:34;20.10;99.90
13251;DHT22;6692;50.710;7.180;2023-07-31T05:29:35;20.10;99.90
13251;DHT22;6692;50.710;7.180;2023-07-31T05:31:36;20.20;99.90
13251;DHT22;6692;50.710;7.180;2023-07-31T05:33:36;20.20;99.90
13251;DHT22;6692;50.710;7.180;2023-07-31T05:35:37;20.20;99.90
13251;DHT22;6692;50.710;7.180;2023-07-31T05:37:39;20.20;99.90
13251;DHT22;6692;50.710;7.180;2023-07-31T05:39:39;20.20;99.90
13251;DHT22;6692;50.710;7.180;2023-07-31T05:41:40;20.20;99.90
13251;DHT22;6692;50.710;7.180;2023-07-31T05:43:41;20.20;99.90
13251;DHT22;6692;50.710;7.180;2023-07-31T05:45:42;20.20;99.90
13251;DHT22;6692;50.710;7.180;2023-07-31T05:47:44;20.30;99.90
13251;DHT22;6692;50.710;7.180;2023-07-31T05:49:44;20.30;99.90
13251;DHT22;6692;50.710;7.180;2023-07-31T05:51:46;20.30;99.90
13251;DHT22;6692;50.710;7.180;2023-07-31T05:53:46;20.30;99.90
13251;DHT22;6692;50.710;7.180;2023-07-31T05:55:47;20.30;99.90
13251;DHT22;6692;50.710;7.180;2023-07-31T05:57:48;20.30;99.90
13251;DHT22;6692;50.710;7.180;2023-07-31T05:59:49;20.30;99.90
13251;DHT22;6692;50.710;7.180;2023-07-31T06:01:49;20.30;99.90
13251;DHT22;6692;50.710;7.180;2023-07-31T06:03:51;20.40;99.90
13251;DHT22;6692;50.710;7.180;2023-07-31T06:05:52;20.40;99.90
13251;DHT22;6692;50.710;7.180;2023-07-31T06:07:53;20.30;99.90
13251;DHT22;6692;50.710;7.180;2023-07-31T06:09:54;20.30;99.90
13251;DHT22;6692;50.710;7.180;2023-07-31T06:11:55;20.30;99.90
13251;DHT22;6692;50.710;7.180;2023-07-31T06:13:56;20.20;99.90
13251;DHT22;6692;50.710;7.180;2023-07-31T06:15:56;20.10;99.90
13251;DHT22;6692;50.710;7.180;2023-07-31T06:17:57;19.80;99.90
13251;DHT22;6692;50.710;7.180;2023-07-31T06:19:58;19.60;99.90
13251;DHT22;6692;50.710;7.180;2023-07-31T06:21:58;19.50;99.90
13251;DHT22;6692;50.710;7.180;2023-07-31T06:23:59;19.40;99.90
13251;DHT22;6692;50.710;7.180;2023-07-31T06:26:00;19.30;99.90
13251;DHT22;6692;50.710;7.180;2023-07-31T06:28:01;19.10;99.90
13251;DHT22;6692;50.710;7.180;2023-07-31T06:30:02;18.80;99.90
13251;DHT22;6692;50.710;7.180;2023-07-31T06:32:04;18.80;99.90
13251;DHT22;6692;50.710;7.180;2023-07-31T06:34:04;18.70;99.90
13251;DHT22;6692;50.710;7.180;2023-07-31T06:36:05;18.70;99.90
13251;DHT22;6692;50.710;7.180;2023-07-31T06:38:06;18.70;99.90
13251;DHT22;6692;50.710;7.180;2023-07-31T06:40:08;18.70;99.90
13251;DHT22;6692;50.710;7.180;2023-07-31T06:42:10;18.70;99.90
13251;DHT22;6692;50.710;7.180;2023-07-31T06:44:11;18.70;99.90
13251;DHT22;6692;50.710;7.180;2023-07-31T06:46:12;18.70;99.90
13251;DHT22;6692;50.710;7.180;2023-07-31T06:48:12;18.70;99.90
13251;DHT22;6692;50.710;7.180;2023-07-31T06:50:13;18.80;99.90
13251;DHT22;6692;50.710;7.180;2023-07-31T06:52:14;18.80;99.90
13251;DHT22;6692;50.710;7.180;2023-07-31T06:54:15;18.80;99.90
13251;DHT22;6692;50.710;7.180;2023-07-31T06:56:15;18.90;99.90
13251;DHT22;6692;50.710;7.180;2023-07-31T06:58:16;18.90;99.90
13251;DHT22;6692;50.710;7.180;2023-07-31T07:00:17;18.90;99.90
13251;DHT22;6692;50.710;7.180;2023-07-31T07:02:17;19.00;99.90
13251;DHT22;6692;50.710;7.180;2023-07-31T07:04:18;19.10;99.90
13251;DHT22;6692;50.710;7.180;2023-07-31T07:06:19;19.20;99.90
13251;DHT22;6692;50.710;7.180;2023-07-31T07:08:21;19.30;99.90
13251;DHT22;6692;50.710;7.180;2023-07-31T07:10:22;19.30;99.90
13251;DHT22;6692;50.710;7.180;2023-07-31T07:12:22;19.30;99.90
13251;DHT22;6692;50.710;7.180;2023-07-31T07:14:23;19.50;99.90
13251;DHT22;6692;50.710;7.180;2023-07-31T07:16:24;19.60;99.90
13251;DHT22;6692;50.710;7.180;2023-07-31T07:18:25;19.80;99.90
13251;DHT22;6692;50.710;7.180;2023-07-31T07:20:26;19.80;99.90
13251;DHT22;6692;50.710;7.180;2023-07-31T07:22:27;19.90;99.90
13251;DHT22;6692;50.710;7.180;2023-07-31T07:24:28;20.00;99.90
13251;DHT22;6692;50.710;7.180;2023-07-31T07:26:28;20.10;99.90
13251;DHT22;6692;50.710;7.180;2023-07-31T07:28:29;20.00;99.90
13251;DHT22;6692;50.710;7.180;2023-07-31T07:30:30;20.00;99.90
13251;DHT22;6692;50.710;7.180;2023-07-31T07:32:30;20.00;99.90
13251;DHT22;6692;50.710;7.180;2023-07-31T07:34:31;20.00;99.90
13251;DHT22;6692;50.710;7.180;2023-07-31T07:36:32;20.00;99.90
13251;DHT22;6692;50.710;7.180;2023-07-31T07:38:33;19.80;99.90
13251;DHT22;6692;50.710;7.180;2023-07-31T07:40:38;19.90;99.90
13251;DHT22;6692;50.710;7.180;2023-07-31T07:42:35;19.80;99.90
13251;DHT22;6692;50.710;7.180;2023-07-31T07:44:35;19.70;99.90
13251;DHT22;6692;50.710;7.180;2023-07-31T07:46:36;19.70;99.90
13251;DHT22;6692;50.710;7.180;2023-07-31T07:48:37;19.70;99.90
13251;DHT22;6692;50.710;7.180;2023-07-31T07:50:39;19.60;99.90
13251;DHT22;6692;50.710;7.180;2023-07-31T07:52:39;19.50;99.90
13251;DHT22;6692;50.710;7.180;2023-07-31T07:54:40;19.40;99.90
13251;DHT22;6692;50.710;7.180;2023-07-31T07:56:41;19.20;99.90
13251;DHT22;6692;50.710;7.180;2023-07-31T07:58:41;19.20;99.90
13251;DHT22;6692;50.710;7.180;2023-07-31T08:00:47;19.30;99.90
13251;DHT22;6692;50.710;7.180;2023-07-31T08:02:43;19.30;99.90
13251;DHT22;6692;50.710;7.180;2023-07-31T08:04:44;19.20;99.90
13251;DHT22;6692;50.710;7.180;2023-07-31T08:06:46;19.20;99.90
13251;DHT22;6692;50.710;7.180;2023-07-31T08:08:46;19.20;99.90
13251;DHT22;6692;50.710;7.180;2023-07-31T08:10:47;19.30;99.90
13251;DHT22;6692;50.710;7.180;2023-07-31T08:12:48;19.30;99.90
13251;DHT22;6692;50.710;7.180;2023-07-31T08:14:49;19.30;99.90
13251;DHT22;6692;50.710;7.180;2023-07-31T08:16:50;19.10;99.90
13251;DHT22;6692;50.710;7.180;2023-07-31T08:18:51;19.10;99.90
13251;DHT22;6692;50.710;7.180;2023-07-31T08:20:52;19.00;99.90
13251;DHT22;6692;50.710;7.180;2023-07-31T08:22:52;18.90;99.90
13251;DHT22;6692;50.710;7.180;2023-07-31T08:24:53;19.00;99.90
13251;DHT22;6692;50.710;7.180;2023-07-31T08:26:54;19.10;99.90
13251;DHT22;6692;50.710;7.180;2023-07-31T08:28:54;19.10;99.90
13251;DHT22;6692;50.710;7.180;2023-07-31T08:30:56;19.20;99.90
13251;DHT22;6692;50.710;7.180;2023-07-31T08:32:57;19.20;99.90
13251;DHT22;6692;50.710;7.180;2023-07-31T08:34:57;19.30;99.90
13251;DHT22;6692;50.710;7.180;2023-07-31T08:36:58;19.50;99.90
13251;DHT22;6692;50.710;7.180;2023-07-31T08:38:59;19.70;99.90
13251;DHT22;6692;50.710;7.180;2023-07-31T08:41:02;19.80;99.90
13251;DHT22;6692;50.710;7.180;2023-07-31T08:43:01;19.80;99.90
13251;DHT22;6692;50.710;7.180;2023-07-31T08:45:02;19.80;99.90
13251;DHT22;6692;50.710;7.180;2023-07-31T08:47:04;19.80;99.90
13251;DHT22;6692;50.710;7.180;2023-07-31T08:49:05;19.80;99.90
13251;DHT22;6692;50.710;7.180;2023-07-31T08:51:05;19.90;99.90
13251;DHT22;6692;50.710;7.180;2023-07-31T08:53:06;19.90;99.90
13251;DHT22;6692;50.710;7.180;2023-07-31T08:55:08;20.00;99.90
13251;DHT22;6692;50.710;7.180;2023-07-31T08:57:08;19.90;99.90
13251;DHT22;6692;50.710;7.180;2023-07-31T08:59:09;19.90;99.90
13251;DHT22;6692;50.710;7.180;2023-07-31T09:01:10;19.90;99.90
13251;DHT22;6692;50.710;7.180;2023-07-31T09:03:14;19.90;99.90
13251;DHT22;6692;50.710;7.180;2023-07-31T09:05:14;20.00;99.90
13251;DHT22;6692;50.710;7.180;2023-07-31T09:07:15;19.90;99.90
13251;DHT22;6692;50.710;7.180;2023-07-31T09:09:16;20.00;99.90
13251;DHT22;6692;50.710;7.180;2023-07-31T09:11:17;19.90;99.90
13251;DHT22;6692;50.710;7.180;2023-07-31T09:13:17;19.80;99.90
13251;DHT22;6692;50.710;7.180;2023-07-31T09:15:18;19.70;99.90
13251;DHT22;6692;50.710;7.180;2023-07-31T09:17:29;19.70;99.90
13251;DHT22;6692;50.710;7.180;2023-07-31T09:19:31;19.70;99.90
13251;DHT22;6692;50.710;7.180;2023-07-31T09:21:29;19.70;99.90
13251;DHT22;6692;50.710;7.180;2023-07-31T09:23:40;19.70;99.90
13251;DHT22;6692;50.710;7.180;2023-07-31T09:25:43;19.70;99.90
13251;DHT22;6692;50.710;7.180;2023-07-31T09:28:13;19.70;99.90
13251;DHT22;6692;50.710;7.180;2023-07-31T09:29:58;19.60;99.90
13251;DHT22;6692;50.710;7.180;2023-07-31T09:31:59;19.60;99.90
13251;DHT22;6692;50.710;7.180;2023-07-31T09:33:59;19.50;99.90
13251;DHT22;6692;50.710;7.180;2023-07-31T09:36:00;19.50;99.90
13251;DHT22;6692;50.710;7.180;2023-07-31T09:38:05;19.50;99.90
13251;DHT22;6692;50.710;7.180;2023-07-31T09:40:05;19.50;99.90
13251;DHT22;6692;50.710;7.180;2023-07-31T09:42:06;19.50;99.90
13251;DHT22;6692;50.710;7.180;2023-07-31T09:44:07;19.50;99.90
13251;DHT22;6692;50.710;7.180;2023-07-31T09:46:12;19.50;99.90
13251;DHT22;6692;50.710;7.180;2023-07-31T09:48:09;19.60;99.90
13251;DHT22;6692;50.710;7.180;2023-07-31T09:50:10;19.70;99.90
13251;DHT22;6692;50.710;7.180;2023-07-31T09:52:11;19.70;99.90
13251;DHT22;6692;50.710;7.180;2023-07-31T09:54:13;19.70;99.90
13251;DHT22;6692;50.710;7.180;2023-07-31T09:56:13;19.70;99.90
13251;DHT22;6692;50.710;7.180;2023-07-31T09:58:13;19.80;99.90
13251;DHT22;6692;50.710;7.180;2023-07-31T10:00:16;19.90;99.90
13251;DHT22;6692;50.710;7.180;2023-07-31T10:02:18;19.90;99.90
13251;DHT22;6692;50.710;7.180;2023-07-31T10:04:17;19.90;99.90
13251;DHT22;6692;50.710;7.180;2023-07-31T10:06:17;19.90;99.90
13251;DHT22;6692;50.710;7.180;2023-07-31T10:08:18;20.00;99.90
13251;DHT22;6692;50.710;7.180;2023-07-31T10:10:20;20.00;99.90
13251;DHT22;6692;50.710;7.180;2023-07-31T10:12:20;20.00;99.90
13251;DHT22;6692;50.710;7.180;2023-07-31T10:14:22;20.20;99.90
13251;DHT22;6692;50.710;7.180;2023-07-31T10:16:22;20.20;99.90
13251;DHT22;6692;50.710;7.180;2023-07-31T10:18:23;20.20;99.90
13251;DHT22;6692;50.710;7.180;2023-07-31T10:20:24;20.20;99.90
13251;DHT22;6692;50.710;7.180;2023-07-31T10:22:25;20.20;99.90
13251;DHT22;6692;50.710;7.180;2023-07-31T10:24:26;20.30;99.90
13251;DHT22;6692;50.710;7.180;2023-07-31T10:26:27;20.20;99.90
13251;DHT22;6692;50.710;7.180;2023-07-31T10:28:27;20.20;99.90
13251;DHT22;6692;50.710;7.180;2023-07-31T10:30:29;20.20;99.90
13251;DHT22;6692;50.710;7.180;2023-07-31T10:32:29;20.20;99.90
13251;DHT22;6692;50.710;7.180;2023-07-31T10:34:29;20.20;99.90
13251;DHT22;6692;50.710;7.180;2023-07-31T10:36:30;20.00;99.90
13251;DHT22;6692;50.710;7.180;2023-07-31T10:38:32;19.90;99.90
13251;DHT22;6692;50.710;7.180;2023-07-31T10:40:32;19.90;99.90
13251;DHT22;6692;50.710;7.180;2023-07-31T10:42:34;20.00;99.90
13251;DHT22;6692;50.710;7.180;2023-07-31T10:44:35;20.10;99.90
13251;DHT22;6692;50.710;7.180;2023-07-31T10:46:36;20.10;99.90
13251;DHT22;6692;50.710;7.180;2023-07-31T10:48:37;20.00;99.90
13251;DHT22;6692;50.710;7.180;2023-07-31T10:50:38;20.10;99.90
13251;DHT22;6692;50.710;7.180;2023-07-31T10:52:38;20.20;99.90
13251;DHT22;6692;50.710;7.180;2023-07-31T10:54:39;20.40;99.90
13251;DHT22;6692;50.710;7.180;2023-07-31T10:56:40;20.60;99.90
13251;DHT22;6692;50.710;7.180;2023-07-31T10:58:41;20.70;99.90
13251;DHT22;6692;50.710;7.180;2023-07-31T11:00:42;20.70;99.90
13251;DHT22;6692;50.710;7.180;2023-07-31T11:02:42;20.70;99.90
13251;DHT22;6692;50.710;7.180;2023-07-31T11:04:44;20.60;99.90
13251;DHT22;6692;50.710;7.180;2023-07-31T11:06:54;20.30;99.90
13251;DHT22;6692;50.710;7.180;2023-07-31T11:08:47;20.30;99.90
13251;DHT22;6692;50.710;7.180;2023-07-31T11:10:48;20.30;99.90
13251;DHT22;6692;50.710;7.180;2023-07-31T11:12:48;20.30;99.90
13251;DHT22;6692;50.710;7.180;2023-07-31T11:14:54;20.30;99.90
13251;DHT22;6692;50.710;7.180;2023-07-31T11:16:54;20.30;99.90
13251;DHT22;6692;50.710;7.180;2023-07-31T11:18:54;20.40;99.90
13251;DHT22;6692;50.710;7.180;2023-07-31T11:20:55;20.40;99.90
13251;DHT22;6692;50.710;7.180;2023-07-31T11:22:58;20.50;99.90
13251;DHT22;6692;50.710;7.180;2023-07-31T11:24:56;20.50;99.90
13251;DHT22;6692;50.710;7.180;2023-07-31T11:26:58;20.50;99.90
13251;DHT22;6692;50.710;7.180;2023-07-31T11:28:59;20.50;99.90
13251;DHT22;6692;50.710;7.180;2023-07-31T11:31:00;20.40;99.90
13251;DHT22;6692;50.710;7.180;2023-07-31T11:33:02;20.40;99.90
13251;DHT22;6692;50.710;7.180;2023-07-31T11:35:02;20.40;99.90
13251;DHT22;6692;50.710;7.180;2023-07-31T11:37:04;20.50;99.90
13251;DHT22;6692;50.710;7.180;2023-07-31T11:39:08;20.50;99.90
13251;DHT22;6692;50.710;7.180;2023-07-31T11:41:08;20.60;99.90
13251;DHT22;6692;50.710;7.180;2023-07-31T11:43:09;20.60;99.90
13251;DHT22;6692;50.710;7.180;2023-07-31T11:45:10;20.40;99.90
13251;DHT22;6692;50.710;7.180;2023-07-31T11:47:12;20.30;99.90
13251;DHT22;6692;50.710;7.180;2023-07-31T11:49:12;20.30;99.90
13251;DHT22;6692;50.710;7.180;2023-07-31T11:51:13;20.20;99.90
13251;DHT22;6692;50.710;7.180;2023-07-31T11:53:15;20.30;99.90
13251;DHT22;6692;50.710;7.180;2023-07-31T11:55:15;20.30;99.90
13251;DHT22;6692;50.710;7.180;2023-07-31T11:57:16;20.60;99.90
13251;DHT22;6692;50.710;7.180;2023-07-31T11:59:17;20.80;99.90
13251;DHT22;6692;50.710;7.180;2023-07-31T12:01:19;21.10;99.90
13251;DHT22;6692;50.710;7.180;2023-07-31T12:03:18;21.30;99.90
13251;DHT22;6692;50.710;7.180;2023-07-31T12:05:19;21.30;99.90
13251;DHT22;6692;50.710;7.180;2023-07-31T12:07:20;21.50;99.90
13251;DHT22;6692;50.710;7.180;2023-07-31T12:09:21;21.60;99.90
13251;DHT22;6692;50.710;7.180;2023-07-31T12:11:22;21.80;99.90
13251;DHT22;6692;50.710;7.180;2023-07-31T12:13:24;21.80;99.90
13251;DHT22;6692;50.710;7.180;2023-07-31T12:15:31;21.80;99.90
13251;DHT22;6692;50.710;7.180;2023-07-31T12:17:30;21.90;99.90
13251;DHT22;6692;50.710;7.180;2023-07-31T12:19:32;22.40;99.90
13251;DHT22;6692;50.710;7.180;2023-07-31T12:21:32;22.40;99.90
13251;DHT22;6692;50.710;7.180;2023-07-31T12:23:34;22.60;99.90
13251;DHT22;6692;50.710;7.180;2023-07-31T12:25:34;22.70;99.90
13251;DHT22;6692;50.710;7.180;2023-07-31T12:27:34;22.80;99.90
13251;DHT22;6692;50.710;7.180;2023-07-31T12:29:35;22.80;99.90
13251;DHT22;6692;50.710;7.180;2023-07-31T12:31:36;22.90;99.90
13251;DHT22;6692;50.710;7.180;2023-07-31T12:33:38;23.10;99.90
13251;DHT22;6692;50.710;7.180;2023-07-31T12:35:40;23.20;99.90
13251;DHT22;6692;50.710;7.180;2023-07-31T12:37:40;23.10;99.90
13251;DHT22;6692;50.710;7.180;2023-07-31T12:39:40;23.20;99.90
13251;DHT22;6692;50.710;7.180;2023-07-31T12:41:41;23.30;99.90
13251;DHT22;6692;50.710;7.180;2023-07-31T12:43:43;23.30;99.90
13251;DHT22;6692;50.710;7.180;2023-07-31T12:45:42;23.30;99.90
13251;DHT22;6692;50.710;7.180;2023-07-31T12:47:43;23.20;99.90
13251;DHT22;6692;50.710;7.180;2023-07-31T12:49:44;23.10;99.90
13251;DHT22;6692;50.710;7.180;2023-07-31T12:51:45;22.90;99.90
13251;DHT22;6692;50.710;7.180;2023-07-31T12:53:46;22.90;99.90
13251;DHT22;6692;50.710;7.180;2023-07-31T12:55:47;22.70;99.90
13251;DHT22;6692;50.710;7.180;2023-07-31T12:57:47;22.60;99.90